Bernissart, Belgium
Current Conditions -  °F | °C
As of 7:25 AM on Sunday 26 Oct 2014 (Local Time) from EBCV Reporting Station
Broken Clouds Broken Clouds  
Wind Chill: 52°   Ceiling: 4300
Heat Index: 52°   Visibility: 6mi
Dew Point: 50°   Wind: 5mph
Humidity: 94%   Direction: 190°S
Pressure: 30.24"   Gusts: NA
Location:  50.47°N, 3.65°E
Report Text: EBCV 260525Z AUTO 19004KT 9999 BKN043/// 11/10 Q1024 BLU
Loading
Personal Weather Stations






























Interactive Weather Map
Tropical Storm Tracking
New forecast layout! Learn more

10-Day Weather Forecast

Advertisements
Track Severe Weather on mobile